N312RK KPWK-KBHM
Flight info
| Callsign | N312RK |
|---|---|
| Flight time | 1h 33m |
| Altitude | 17500 |
| Route | VFR/SE |
| Aircraft | C25C/L-G/L |
Departure
| Time | 2026-04-16 20:24 |
|---|---|
| Airport | Chicago Executive Airport (KPWK) |
Arrival
| Time | 2026-04-16 21:58 |
|---|---|
| Airport | Birmingham-Shuttlesworth International Airport (KBHM) |
| Time | Latitude | Longitude | Altitude | Speed | Heading |
|---|---|---|---|---|---|
| 2026-04-16 20:16 | 42.11741 | -87.89732 | 645 ft | 0 kts | 180° |
| 2026-04-16 20:19 | 42.11739 | -87.89731 | 645 ft | 1 kts | 158° |
| 2026-04-16 20:19 | 42.11741 | -87.89725 | 645 ft | 1 kts | 24° |
| 2026-04-16 20:19 | 42.11746 | -87.89746 | 645 ft | 8 kts | 278° |
| 2026-04-16 20:19 | 42.11751 | -87.89875 | 645 ft | 15 kts | 258° |
| 2026-04-16 20:20 | 42.11749 | -87.89889 | 645 ft | 0 kts | 261° |
| 2026-04-16 20:20 | 42.11757 | -87.89915 | 646 ft | 15 kts | 293° |
| 2026-04-16 20:20 | 42.11736 | -87.90087 | 644 ft | 9 kts | 248° |
| 2026-04-16 20:20 | 42.11725 | -87.90129 | 644 ft | 0 kts | 246° |
| 2026-04-16 20:21 | 42.11651 | -87.90196 | 646 ft | 23 kts | 157° |
| 2026-04-16 20:21 | 42.11472 | -87.90102 | 645 ft | 31 kts | 160° |
| 2026-04-16 20:21 | 42.11306 | -87.90019 | 645 ft | 0 kts | 151° |
| 2026-04-16 20:22 | 42.11302 | -87.90015 | 645 ft | 6 kts | 150° |
| 2026-04-16 20:22 | 42.11160 | -87.89938 | 643 ft | 16 kts | 160° |
| 2026-04-16 20:22 | 42.11109 | -87.89921 | 643 ft | 0 kts | 160° |
| 2026-04-16 20:22 | 42.11089 | -87.89953 | 643 ft | 0 kts | 250° |
| 2026-04-16 20:23 | 42.11086 | -87.89965 | 644 ft | 10 kts | 250° |
| 2026-04-16 20:23 | 42.11110 | -87.90072 | 644 ft | 7 kts | 336° |
| 2026-04-16 20:23 | 42.11112 | -87.90073 | 644 ft | 1 kts | 336° |
| 2026-04-16 20:24 | 42.11426 | -87.90237 | 646 ft | 98 kts | 340° |
| 2026-04-16 20:24 | 42.12304 | -87.90711 | 806 ft | 162 kts | 335° |
| 2026-04-16 20:24 | 42.13438 | -87.91337 | 1614 ft | 191 kts | 339° |
| 2026-04-16 20:24 | 42.14809 | -87.91500 | 2644 ft | 208 kts | 6° |
| 2026-04-16 20:25 | 42.16173 | -87.90690 | 3642 ft | 229 kts | 33° |
| 2026-04-16 20:25 | 42.17300 | -87.88975 | 4342 ft | 262 kts | 57° |
| 2026-04-16 20:25 | 42.17951 | -87.86569 | 4979 ft | 291 kts | 78° |
| 2026-04-16 20:25 | 42.17876 | -87.83809 | 5944 ft | 297 kts | 103° |
| 2026-04-16 20:26 | 42.17068 | -87.81283 | 7086 ft | 295 kts | 123° |
| 2026-04-16 20:26 | 42.15763 | -87.79123 | 8352 ft | 300 kts | 134° |
| 2026-04-16 20:26 | 42.14367 | -87.77090 | 10073 ft | 286 kts | 133° |
| 2026-04-16 20:26 | 42.13097 | -87.75145 | 11895 ft | 269 kts | 133° |
| 2026-04-16 20:27 | 42.11775 | -87.73463 | 13534 ft | 257 kts | 153° |
| 2026-04-16 20:27 | 42.10096 | -87.72590 | 14633 ft | 263 kts | 166° |
| 2026-04-16 20:27 | 42.08338 | -87.71911 | 15696 ft | 268 kts | 168° |
| 2026-04-16 20:27 | 42.06462 | -87.71248 | 16462 ft | 292 kts | 168° |
| 2026-04-16 20:28 | 42.04326 | -87.70527 | 16504 ft | 340 kts | 169° |
| 2026-04-16 20:28 | 42.01910 | -87.69758 | 16494 ft | 381 kts | 171° |
| 2026-04-16 20:28 | 41.99192 | -87.69113 | 16496 ft | 403 kts | 173° |
| 2026-04-16 20:28 | 41.96508 | -87.68561 | 16542 ft | 376 kts | 174° |
| 2026-04-16 20:29 | 41.93944 | -87.68059 | 16771 ft | 375 kts | 174° |
| 2026-04-16 20:29 | 41.91329 | -87.67556 | 16990 ft | 387 kts | 175° |
| 2026-04-16 20:29 | 41.88626 | -87.67044 | 17214 ft | 398 kts | 175° |
| 2026-04-16 20:29 | 41.85844 | -87.66525 | 17403 ft | 410 kts | 175° |
| 2026-04-16 20:30 | 41.82959 | -87.65990 | 17467 ft | 427 kts | 175° |
| 2026-04-16 20:30 | 41.79978 | -87.65444 | 17497 ft | 430 kts | 175° |
| 2026-04-16 20:30 | 41.77171 | -87.64917 | 17500 ft | 401 kts | 175° |
| 2026-04-16 20:30 | 41.74426 | -87.64391 | 17496 ft | 397 kts | 175° |
| 2026-04-16 20:31 | 41.71660 | -87.63861 | 17492 ft | 407 kts | 175° |
| 2026-04-16 20:31 | 41.68845 | -87.63320 | 17493 ft | 407 kts | 175° |
| 2026-04-16 20:31 | 41.66054 | -87.62782 | 17503 ft | 404 kts | 175° |
| 2026-04-16 20:31 | 41.63276 | -87.62239 | 17507 ft | 402 kts | 175° |
| 2026-04-16 20:32 | 41.60513 | -87.61700 | 17505 ft | 402 kts | 175° |
| 2026-04-16 20:32 | 41.57734 | -87.61151 | 17505 ft | 405 kts | 175° |
| 2026-04-16 20:32 | 41.55198 | -87.60657 | 17506 ft | 410 kts | 175° |
| 2026-04-16 20:32 | 41.52352 | -87.60098 | 17505 ft | 415 kts | 175° |
| 2026-04-16 20:33 | 41.49514 | -87.59544 | 17507 ft | 417 kts | 175° |
| 2026-04-16 20:33 | 41.46667 | -87.58982 | 17507 ft | 410 kts | 175° |
| 2026-04-16 20:33 | 41.43864 | -87.58424 | 17504 ft | 404 kts | 175° |
| 2026-04-16 20:33 | 41.41095 | -87.57867 | 17504 ft | 400 kts | 175° |
| 2026-04-16 20:34 | 41.38348 | -87.57311 | 17490 ft | 397 kts | 175° |
| 2026-04-16 20:34 | 41.35633 | -87.56757 | 17491 ft | 393 kts | 175° |
| 2026-04-16 20:34 | 41.32926 | -87.56199 | 17487 ft | 390 kts | 175° |
| 2026-04-16 20:34 | 41.30251 | -87.55646 | 17485 ft | 388 kts | 175° |
| 2026-04-16 20:35 | 41.27622 | -87.55098 | 17483 ft | 388 kts | 175° |
| 2026-04-16 20:35 | 41.24937 | -87.54542 | 17483 ft | 391 kts | 175° |
| 2026-04-16 20:35 | 41.22230 | -87.54019 | 17493 ft | 395 kts | 175° |
| 2026-04-16 20:35 | 41.19491 | -87.53502 | 17499 ft | 399 kts | 176° |
| 2026-04-16 20:36 | 41.16731 | -87.52987 | 17503 ft | 402 kts | 176° |
| 2026-04-16 20:36 | 41.13949 | -87.52472 | 17511 ft | 405 kts | 176° |
| 2026-04-16 20:36 | 41.11145 | -87.51949 | 17512 ft | 407 kts | 176° |
| 2026-04-16 20:36 | 41.09285 | -87.51606 | 17510 ft | 408 kts | 176° |
| 2026-04-16 20:37 | 41.06465 | -87.51083 | 17515 ft | 410 kts | 176° |
| 2026-04-16 20:37 | 41.03629 | -87.50558 | 17512 ft | 411 kts | 176° |
| 2026-04-16 20:37 | 40.99868 | -87.49857 | 17510 ft | 413 kts | 176° |
| 2026-04-16 20:37 | 40.97021 | -87.49325 | 17512 ft | 413 kts | 176° |
| 2026-04-16 20:38 | 40.95092 | -87.48965 | 17510 ft | 414 kts | 176° |
| 2026-04-16 20:38 | 40.92268 | -87.48437 | 17512 ft | 414 kts | 176° |
| 2026-04-16 20:38 | 40.89413 | -87.47902 | 17513 ft | 415 kts | 176° |
| 2026-04-16 20:38 | 40.86545 | -87.47361 | 17513 ft | 415 kts | 176° |
| 2026-04-16 20:39 | 40.83682 | -87.46823 | 17513 ft | 415 kts | 176° |
| 2026-04-16 20:39 | 40.80820 | -87.46280 | 17512 ft | 415 kts | 176° |
| 2026-04-16 20:39 | 40.77950 | -87.45735 | 17511 ft | 415 kts | 176° |
| 2026-04-16 20:39 | 40.75095 | -87.45189 | 17506 ft | 414 kts | 176° |
| 2026-04-16 20:40 | 40.72281 | -87.44647 | 17502 ft | 413 kts | 176° |
| 2026-04-16 20:40 | 40.69441 | -87.44097 | 17498 ft | 412 kts | 176° |
| 2026-04-16 20:40 | 40.66610 | -87.43552 | 17495 ft | 411 kts | 176° |
| 2026-04-16 20:40 | 40.63780 | -87.43142 | 17491 ft | 407 kts | 181° |
| 2026-04-16 20:41 | 40.60955 | -87.43011 | 17496 ft | 405 kts | 183° |
| 2026-04-16 20:41 | 40.58142 | -87.42968 | 17495 ft | 404 kts | 184° |
| 2026-04-16 20:41 | 40.55334 | -87.42956 | 17501 ft | 403 kts | 185° |
| 2026-04-16 20:41 | 40.52523 | -87.42960 | 17500 ft | 402 kts | 185° |
| 2026-04-16 20:42 | 40.49721 | -87.42963 | 17504 ft | 402 kts | 185° |
| 2026-04-16 20:42 | 40.46925 | -87.42969 | 17509 ft | 401 kts | 185° |
| 2026-04-16 20:42 | 40.44133 | -87.42976 | 17508 ft | 401 kts | 185° |
| 2026-04-16 20:42 | 40.41341 | -87.42981 | 17513 ft | 401 kts | 185° |
| 2026-04-16 20:43 | 40.38547 | -87.42989 | 17518 ft | 400 kts | 185° |
| 2026-04-16 20:43 | 40.35760 | -87.42992 | 17521 ft | 400 kts | 185° |
| 2026-04-16 20:43 | 40.33019 | -87.42998 | 17522 ft | 400 kts | 185° |
| 2026-04-16 20:43 | 40.30237 | -87.43005 | 17522 ft | 399 kts | 185° |
| 2026-04-16 20:44 | 40.27456 | -87.43008 | 17532 ft | 399 kts | 185° |
| 2026-04-16 20:44 | 40.24684 | -87.43016 | 17537 ft | 399 kts | 185° |
| 2026-04-16 20:44 | 40.21915 | -87.43018 | 17532 ft | 398 kts | 185° |
| 2026-04-16 20:44 | 40.19140 | -87.43024 | 17538 ft | 397 kts | 185° |
| 2026-04-16 20:45 | 40.16369 | -87.43029 | 17534 ft | 397 kts | 185° |
| 2026-04-16 20:45 | 40.13607 | -87.43031 | 17537 ft | 397 kts | 185° |
| 2026-04-16 20:45 | 40.10836 | -87.43036 | 17536 ft | 397 kts | 185° |
| 2026-04-16 20:45 | 40.08113 | -87.43041 | 17533 ft | 397 kts | 185° |
| 2026-04-16 20:46 | 40.05354 | -87.43043 | 17533 ft | 396 kts | 185° |
| 2026-04-16 20:46 | 40.02595 | -87.43050 | 17530 ft | 396 kts | 185° |
| 2026-04-16 20:46 | 39.99836 | -87.43058 | 17531 ft | 395 kts | 185° |
| 2026-04-16 20:46 | 39.97085 | -87.43067 | 17529 ft | 395 kts | 185° |
| 2026-04-16 20:47 | 39.94338 | -87.43077 | 17530 ft | 395 kts | 185° |
| 2026-04-16 20:47 | 39.91592 | -87.43086 | 17540 ft | 394 kts | 185° |
| 2026-04-16 20:47 | 39.88848 | -87.43099 | 17537 ft | 394 kts | 185° |
| 2026-04-16 20:47 | 39.86110 | -87.43107 | 17537 ft | 393 kts | 185° |
| 2026-04-16 20:48 | 39.83369 | -87.43122 | 17546 ft | 393 kts | 185° |
| 2026-04-16 20:48 | 39.80628 | -87.43134 | 17545 ft | 393 kts | 185° |
| 2026-04-16 20:48 | 39.77891 | -87.43152 | 17548 ft | 393 kts | 185° |
| 2026-04-16 20:48 | 39.75153 | -87.43169 | 17548 ft | 393 kts | 185° |
| 2026-04-16 20:49 | 39.72460 | -87.43187 | 17552 ft | 392 kts | 185° |
| 2026-04-16 20:49 | 39.69727 | -87.43208 | 17549 ft | 392 kts | 185° |
| 2026-04-16 20:49 | 39.66999 | -87.43229 | 17551 ft | 392 kts | 185° |
| 2026-04-16 20:49 | 39.64263 | -87.43250 | 17549 ft | 392 kts | 185° |
| 2026-04-16 20:50 | 39.61527 | -87.43274 | 17552 ft | 392 kts | 185° |
| 2026-04-16 20:50 | 39.58800 | -87.43299 | 17553 ft | 392 kts | 185° |
| 2026-04-16 20:50 | 39.56072 | -87.43322 | 17556 ft | 391 kts | 185° |
| 2026-04-16 20:50 | 39.53379 | -87.43349 | 17557 ft | 391 kts | 185° |
| 2026-04-16 20:51 | 39.50657 | -87.43373 | 17557 ft | 391 kts | 185° |
| 2026-04-16 20:51 | 39.47940 | -87.43397 | 17558 ft | 390 kts | 185° |
| 2026-04-16 20:51 | 39.45224 | -87.43423 | 17552 ft | 390 kts | 185° |
| 2026-04-16 20:51 | 39.42507 | -87.43442 | 17557 ft | 389 kts | 185° |
| 2026-04-16 20:52 | 39.39799 | -87.43465 | 17558 ft | 389 kts | 185° |
| 2026-04-16 20:52 | 39.37092 | -87.43485 | 17563 ft | 388 kts | 185° |
| 2026-04-16 20:52 | 39.34414 | -87.43324 | 17560 ft | 391 kts | 179° |
| 2026-04-16 20:52 | 39.31701 | -87.42911 | 17560 ft | 392 kts | 177° |
| 2026-04-16 20:53 | 39.28993 | -87.42420 | 17558 ft | 392 kts | 176° |
| 2026-04-16 20:53 | 39.26297 | -87.41906 | 17560 ft | 391 kts | 176° |
| 2026-04-16 20:53 | 39.23601 | -87.41377 | 17559 ft | 391 kts | 176° |
| 2026-04-16 20:53 | 39.20915 | -87.40846 | 17558 ft | 391 kts | 176° |
| 2026-04-16 20:54 | 39.18230 | -87.40313 | 17563 ft | 390 kts | 176° |
| 2026-04-16 20:54 | 39.15545 | -87.39776 | 17563 ft | 390 kts | 176° |
| 2026-04-16 20:54 | 39.12899 | -87.39247 | 17566 ft | 389 kts | 176° |
| 2026-04-16 20:54 | 39.10215 | -87.38707 | 17560 ft | 389 kts | 176° |
| 2026-04-16 20:55 | 39.07543 | -87.38174 | 17508 ft | 390 kts | 176° |
| 2026-04-16 20:55 | 39.04860 | -87.37635 | 17509 ft | 389 kts | 176° |
| 2026-04-16 20:55 | 39.02179 | -87.37095 | 17505 ft | 389 kts | 176° |
| 2026-04-16 20:55 | 38.99506 | -87.36559 | 17503 ft | 388 kts | 176° |
| 2026-04-16 20:56 | 38.96844 | -87.36020 | 17502 ft | 388 kts | 176° |
| 2026-04-16 20:56 | 38.94179 | -87.35480 | 17502 ft | 387 kts | 176° |
| 2026-04-16 20:56 | 38.91515 | -87.34940 | 17495 ft | 387 kts | 176° |
| 2026-04-16 20:56 | 38.88858 | -87.34399 | 17502 ft | 386 kts | 176° |
| 2026-04-16 20:57 | 38.86205 | -87.33858 | 17501 ft | 386 kts | 176° |
| 2026-04-16 20:57 | 38.83579 | -87.33324 | 17497 ft | 385 kts | 176° |
| 2026-04-16 20:57 | 38.80933 | -87.32780 | 17500 ft | 385 kts | 176° |
| 2026-04-16 20:57 | 38.78278 | -87.32237 | 17501 ft | 385 kts | 176° |
| 2026-04-16 20:58 | 38.75631 | -87.31697 | 17500 ft | 385 kts | 176° |
| 2026-04-16 20:58 | 38.72989 | -87.31155 | 17504 ft | 384 kts | 176° |
| 2026-04-16 20:58 | 38.70344 | -87.30615 | 17505 ft | 384 kts | 176° |
| 2026-04-16 20:58 | 38.67708 | -87.30073 | 17503 ft | 384 kts | 176° |
| 2026-04-16 20:59 | 38.65068 | -87.29533 | 17503 ft | 384 kts | 176° |
| 2026-04-16 20:59 | 38.62428 | -87.28991 | 17508 ft | 383 kts | 176° |
| 2026-04-16 20:59 | 38.59796 | -87.28452 | 17500 ft | 383 kts | 176° |
| 2026-04-16 20:59 | 38.57166 | -87.27914 | 17505 ft | 383 kts | 176° |
| 2026-04-16 21:00 | 38.54567 | -87.27383 | 17504 ft | 382 kts | 176° |
| 2026-04-16 21:00 | 38.51942 | -87.26848 | 17508 ft | 382 kts | 176° |
| 2026-04-16 21:00 | 38.49311 | -87.26310 | 17507 ft | 382 kts | 176° |
| 2026-04-16 21:00 | 38.46688 | -87.25773 | 17507 ft | 382 kts | 176° |
| 2026-04-16 21:01 | 38.44061 | -87.25235 | 17510 ft | 382 kts | 176° |
| 2026-04-16 21:01 | 38.41429 | -87.24698 | 17516 ft | 382 kts | 176° |
| 2026-04-16 21:01 | 38.38796 | -87.24163 | 17519 ft | 382 kts | 176° |
| 2026-04-16 21:01 | 38.36199 | -87.23634 | 17516 ft | 382 kts | 176° |
| 2026-04-16 21:02 | 38.33572 | -87.23102 | 17510 ft | 381 kts | 176° |
| 2026-04-16 21:02 | 38.30947 | -87.22567 | 17517 ft | 381 kts | 176° |
| 2026-04-16 21:02 | 38.28326 | -87.22040 | 17521 ft | 381 kts | 176° |
| 2026-04-16 21:03 | 38.23093 | -87.20982 | 17518 ft | 381 kts | 176° |
| 2026-04-16 21:03 | 38.20472 | -87.20450 | 17521 ft | 380 kts | 176° |
| 2026-04-16 21:03 | 38.17853 | -87.19920 | 17513 ft | 380 kts | 176° |
| 2026-04-16 21:03 | 38.15241 | -87.19390 | 17520 ft | 380 kts | 176° |
| 2026-04-16 21:04 | 38.12625 | -87.18862 | 17510 ft | 381 kts | 176° |
| 2026-04-16 21:04 | 38.10040 | -87.18340 | 17512 ft | 381 kts | 176° |
| 2026-04-16 21:04 | 38.07425 | -87.17809 | 17508 ft | 381 kts | 176° |
| 2026-04-16 21:04 | 38.04801 | -87.17280 | 17525 ft | 381 kts | 176° |
| 2026-04-16 21:05 | 38.02186 | -87.16752 | 17522 ft | 381 kts | 176° |
| 2026-04-16 21:05 | 37.99568 | -87.16218 | 17521 ft | 381 kts | 176° |
| 2026-04-16 21:05 | 37.96947 | -87.15689 | 17518 ft | 381 kts | 176° |
| 2026-04-16 21:05 | 37.94326 | -87.15156 | 17518 ft | 380 kts | 176° |
| 2026-04-16 21:06 | 37.91712 | -87.14625 | 17517 ft | 380 kts | 176° |
| 2026-04-16 21:06 | 37.89097 | -87.14094 | 17515 ft | 381 kts | 176° |
| 2026-04-16 21:06 | 37.86485 | -87.13561 | 17517 ft | 380 kts | 176° |
| 2026-04-16 21:06 | 37.83903 | -87.13038 | 17514 ft | 380 kts | 176° |
| 2026-04-16 21:07 | 37.81279 | -87.12500 | 17513 ft | 380 kts | 176° |
| 2026-04-16 21:07 | 37.78663 | -87.11966 | 17515 ft | 380 kts | 176° |
| 2026-04-16 21:07 | 37.76049 | -87.11431 | 17510 ft | 380 kts | 176° |
| 2026-04-16 21:07 | 37.73436 | -87.10893 | 17513 ft | 380 kts | 176° |
| 2026-04-16 21:08 | 37.70824 | -87.10352 | 17512 ft | 380 kts | 176° |
| 2026-04-16 21:08 | 37.68209 | -87.09813 | 17516 ft | 380 kts | 176° |
| 2026-04-16 21:08 | 37.65598 | -87.09268 | 17512 ft | 380 kts | 176° |
| 2026-04-16 21:08 | 37.63006 | -87.08766 | 17508 ft | 380 kts | 177° |
| 2026-04-16 21:09 | 37.60389 | -87.08310 | 17507 ft | 379 kts | 178° |
| 2026-04-16 21:09 | 37.57770 | -87.07873 | 17509 ft | 379 kts | 178° |
| 2026-04-16 21:09 | 37.55152 | -87.07436 | 17506 ft | 379 kts | 178° |
| 2026-04-16 21:09 | 37.52538 | -87.07003 | 17508 ft | 379 kts | 178° |
| 2026-04-16 21:10 | 37.49919 | -87.06571 | 17507 ft | 379 kts | 178° |
| 2026-04-16 21:10 | 37.47305 | -87.06135 | 17508 ft | 379 kts | 178° |
| 2026-04-16 21:10 | 37.44690 | -87.05703 | 17504 ft | 379 kts | 178° |
| 2026-04-16 21:10 | 37.42079 | -87.05268 | 17510 ft | 378 kts | 178° |
| 2026-04-16 21:11 | 37.39470 | -87.04831 | 17508 ft | 378 kts | 178° |
| 2026-04-16 21:11 | 37.36888 | -87.04400 | 17509 ft | 378 kts | 178° |
| 2026-04-16 21:11 | 37.34276 | -87.03957 | 17508 ft | 378 kts | 178° |
| 2026-04-16 21:11 | 37.31669 | -87.03518 | 17512 ft | 378 kts | 178° |
| 2026-04-16 21:12 | 37.29059 | -87.03073 | 17516 ft | 377 kts | 178° |
| 2026-04-16 21:12 | 37.26455 | -87.02626 | 17514 ft | 377 kts | 178° |
| 2026-04-16 21:12 | 37.23849 | -87.02183 | 17514 ft | 377 kts | 178° |
| 2026-04-16 21:12 | 37.21279 | -87.01744 | 17515 ft | 377 kts | 178° |
| 2026-04-16 21:13 | 37.18678 | -87.01301 | 17513 ft | 377 kts | 178° |
| 2026-04-16 21:13 | 37.16078 | -87.00857 | 17518 ft | 377 kts | 178° |
| 2026-04-16 21:13 | 37.13479 | -87.00414 | 17516 ft | 376 kts | 178° |
| 2026-04-16 21:13 | 37.10879 | -86.99969 | 17515 ft | 376 kts | 178° |
| 2026-04-16 21:14 | 37.08289 | -86.99524 | 17518 ft | 376 kts | 178° |
| 2026-04-16 21:14 | 37.05698 | -86.99076 | 17517 ft | 376 kts | 178° |
| 2026-04-16 21:14 | 37.03136 | -86.98639 | 17523 ft | 376 kts | 178° |
| 2026-04-16 21:14 | 37.00541 | -86.98191 | 17522 ft | 376 kts | 178° |
| 2026-04-16 21:15 | 36.97949 | -86.97747 | 17520 ft | 376 kts | 178° |
| 2026-04-16 21:15 | 36.95359 | -86.97303 | 17525 ft | 375 kts | 178° |
| 2026-04-16 21:15 | 36.92770 | -86.96858 | 17526 ft | 375 kts | 178° |
| 2026-04-16 21:15 | 36.90174 | -86.96416 | 17504 ft | 377 kts | 178° |
| 2026-04-16 21:16 | 36.87570 | -86.95973 | 17503 ft | 378 kts | 178° |
| 2026-04-16 21:16 | 36.84958 | -86.95527 | 17505 ft | 379 kts | 178° |
| 2026-04-16 21:16 | 36.82373 | -86.95091 | 17506 ft | 380 kts | 178° |
| 2026-04-16 21:16 | 36.79740 | -86.94647 | 17504 ft | 381 kts | 178° |
| 2026-04-16 21:17 | 36.77111 | -86.94202 | 17506 ft | 380 kts | 178° |
| 2026-04-16 21:17 | 36.74483 | -86.93761 | 17502 ft | 380 kts | 178° |
| 2026-04-16 21:17 | 36.71867 | -86.93318 | 17501 ft | 379 kts | 178° |
| 2026-04-16 21:17 | 36.69249 | -86.92877 | 17503 ft | 379 kts | 178° |
| 2026-04-16 21:18 | 36.66633 | -86.92437 | 17498 ft | 379 kts | 178° |
| 2026-04-16 21:18 | 36.64011 | -86.91995 | 17504 ft | 379 kts | 178° |
| 2026-04-16 21:18 | 36.61401 | -86.91561 | 17507 ft | 379 kts | 178° |
| 2026-04-16 21:18 | 36.58820 | -86.91128 | 17506 ft | 379 kts | 178° |
| 2026-04-16 21:19 | 36.56209 | -86.90691 | 17505 ft | 379 kts | 178° |
| 2026-04-16 21:19 | 36.53592 | -86.90253 | 17508 ft | 379 kts | 178° |
| 2026-04-16 21:19 | 36.50976 | -86.89818 | 17504 ft | 379 kts | 178° |
| 2026-04-16 21:19 | 36.48356 | -86.89381 | 17506 ft | 379 kts | 178° |
| 2026-04-16 21:20 | 36.45737 | -86.88947 | 17502 ft | 379 kts | 178° |
| 2026-04-16 21:20 | 36.43118 | -86.88508 | 17502 ft | 379 kts | 178° |
| 2026-04-16 21:20 | 36.40502 | -86.88075 | 17499 ft | 379 kts | 178° |
| 2026-04-16 21:20 | 36.37886 | -86.87640 | 17496 ft | 379 kts | 178° |
| 2026-04-16 21:21 | 36.35274 | -86.87203 | 17496 ft | 379 kts | 178° |
| 2026-04-16 21:21 | 36.32653 | -86.86766 | 17489 ft | 379 kts | 178° |
| 2026-04-16 21:21 | 36.30068 | -86.86333 | 17490 ft | 379 kts | 178° |
| 2026-04-16 21:21 | 36.27420 | -86.85891 | 17484 ft | 379 kts | 178° |
| 2026-04-16 21:22 | 36.24805 | -86.85453 | 17484 ft | 379 kts | 178° |
| 2026-04-16 21:22 | 36.22221 | -86.85016 | 17487 ft | 379 kts | 178° |
| 2026-04-16 21:22 | 36.19605 | -86.84564 | 17484 ft | 381 kts | 176° |
| 2026-04-16 21:22 | 36.16992 | -86.83944 | 17486 ft | 382 kts | 174° |
| 2026-04-16 21:23 | 36.14397 | -86.83255 | 17485 ft | 383 kts | 173° |
| 2026-04-16 21:23 | 36.11787 | -86.82535 | 17488 ft | 383 kts | 173° |
| 2026-04-16 21:23 | 36.09192 | -86.81809 | 17488 ft | 383 kts | 173° |
| 2026-04-16 21:23 | 36.06588 | -86.81078 | 17516 ft | 383 kts | 173° |
| 2026-04-16 21:24 | 36.04870 | -86.80593 | 17515 ft | 383 kts | 173° |
| 2026-04-16 21:24 | 36.02274 | -86.79861 | 17513 ft | 383 kts | 173° |
| 2026-04-16 21:24 | 35.99675 | -86.79128 | 17516 ft | 383 kts | 173° |
| 2026-04-16 21:24 | 35.97080 | -86.78393 | 17507 ft | 383 kts | 173° |
| 2026-04-16 21:25 | 35.93639 | -86.77420 | 17505 ft | 383 kts | 173° |
| 2026-04-16 21:25 | 35.91045 | -86.76681 | 17504 ft | 382 kts | 173° |
| 2026-04-16 21:25 | 35.89292 | -86.76182 | 17505 ft | 382 kts | 173° |
| 2026-04-16 21:25 | 35.86733 | -86.75453 | 17504 ft | 382 kts | 173° |
| 2026-04-16 21:26 | 35.84144 | -86.74713 | 17499 ft | 382 kts | 173° |
| 2026-04-16 21:26 | 35.81554 | -86.73975 | 17502 ft | 382 kts | 173° |
| 2026-04-16 21:26 | 35.78967 | -86.73232 | 17499 ft | 382 kts | 173° |
| 2026-04-16 21:26 | 35.76380 | -86.72491 | 17502 ft | 381 kts | 173° |
| 2026-04-16 21:27 | 35.73792 | -86.71746 | 17499 ft | 381 kts | 173° |
| 2026-04-16 21:27 | 35.71209 | -86.70998 | 17493 ft | 381 kts | 173° |
| 2026-04-16 21:27 | 35.68630 | -86.70250 | 17498 ft | 381 kts | 173° |
| 2026-04-16 21:27 | 35.66051 | -86.69501 | 17494 ft | 381 kts | 173° |
| 2026-04-16 21:28 | 35.63464 | -86.68745 | 17494 ft | 380 kts | 173° |
| 2026-04-16 21:28 | 35.60889 | -86.67993 | 17492 ft | 380 kts | 173° |
| 2026-04-16 21:28 | 35.58348 | -86.67246 | 17491 ft | 380 kts | 173° |
| 2026-04-16 21:28 | 35.55774 | -86.66491 | 17493 ft | 380 kts | 173° |
| 2026-04-16 21:29 | 35.53198 | -86.65731 | 17490 ft | 380 kts | 173° |
| 2026-04-16 21:29 | 35.50631 | -86.64975 | 17493 ft | 380 kts | 173° |
| 2026-04-16 21:29 | 35.48061 | -86.64212 | 17492 ft | 380 kts | 173° |
| 2026-04-16 21:29 | 35.45491 | -86.63453 | 17241 ft | 376 kts | 173° |
| 2026-04-16 21:30 | 35.42964 | -86.62701 | 16983 ft | 373 kts | 173° |
| 2026-04-16 21:30 | 35.40435 | -86.61952 | 16731 ft | 376 kts | 173° |
| 2026-04-16 21:30 | 35.37878 | -86.61203 | 16479 ft | 378 kts | 173° |
| 2026-04-16 21:30 | 35.35314 | -86.60457 | 16230 ft | 380 kts | 173° |
| 2026-04-16 21:31 | 35.32734 | -86.59715 | 15986 ft | 381 kts | 173° |
| 2026-04-16 21:31 | 35.30149 | -86.58977 | 15752 ft | 382 kts | 173° |
| 2026-04-16 21:31 | 35.27571 | -86.58246 | 15510 ft | 374 kts | 173° |
| 2026-04-16 21:31 | 35.25109 | -86.57529 | 15265 ft | 354 kts | 173° |
| 2026-04-16 21:32 | 35.22767 | -86.56836 | 15017 ft | 339 kts | 172° |
| 2026-04-16 21:32 | 35.20514 | -86.56165 | 14774 ft | 328 kts | 173° |
| 2026-04-16 21:32 | 35.18327 | -86.55513 | 14526 ft | 319 kts | 172° |
| 2026-04-16 21:32 | 35.16195 | -86.54875 | 14288 ft | 312 kts | 173° |
| 2026-04-16 21:33 | 35.14104 | -86.54249 | 14049 ft | 307 kts | 173° |
| 2026-04-16 21:33 | 35.12033 | -86.53633 | 13796 ft | 303 kts | 173° |
| 2026-04-16 21:33 | 35.09990 | -86.53029 | 13527 ft | 300 kts | 172° |
| 2026-04-16 21:33 | 35.07987 | -86.52437 | 13266 ft | 298 kts | 173° |
| 2026-04-16 21:34 | 35.05980 | -86.51851 | 13003 ft | 296 kts | 172° |
| 2026-04-16 21:34 | 35.03981 | -86.51274 | 12748 ft | 294 kts | 172° |
| 2026-04-16 21:34 | 35.01992 | -86.50705 | 12493 ft | 294 kts | 172° |
| 2026-04-16 21:34 | 34.99976 | -86.50148 | 12242 ft | 300 kts | 173° |
| 2026-04-16 21:35 | 34.97908 | -86.49585 | 11992 ft | 307 kts | 172° |
| 2026-04-16 21:35 | 34.95802 | -86.49023 | 11744 ft | 312 kts | 172° |
| 2026-04-16 21:35 | 34.93663 | -86.48472 | 11579 ft | 314 kts | 173° |
| 2026-04-16 21:35 | 34.91532 | -86.47954 | 11527 ft | 311 kts | 174° |
| 2026-04-16 21:36 | 34.89410 | -86.47492 | 11471 ft | 309 kts | 174° |
| 2026-04-16 21:36 | 34.87269 | -86.47037 | 11252 ft | 313 kts | 174° |
| 2026-04-16 21:36 | 34.85137 | -86.46608 | 11044 ft | 317 kts | 174° |
| 2026-04-16 21:36 | 34.82847 | -86.46163 | 10833 ft | 349 kts | 174° |
| 2026-04-16 21:37 | 34.80423 | -86.45716 | 10631 ft | 356 kts | 174° |
| 2026-04-16 21:37 | 34.77960 | -86.45274 | 10563 ft | 359 kts | 174° |
| 2026-04-16 21:37 | 34.75527 | -86.44839 | 10531 ft | 344 kts | 175° |
| 2026-04-16 21:37 | 34.73176 | -86.44423 | 10510 ft | 340 kts | 175° |
| 2026-04-16 21:38 | 34.70838 | -86.44005 | 10505 ft | 338 kts | 175° |
| 2026-04-16 21:38 | 34.68513 | -86.43588 | 10499 ft | 336 kts | 174° |
| 2026-04-16 21:38 | 34.66202 | -86.43170 | 10488 ft | 335 kts | 175° |
| 2026-04-16 21:38 | 34.63854 | -86.42746 | 10489 ft | 347 kts | 175° |
| 2026-04-16 21:39 | 34.61427 | -86.42324 | 10496 ft | 357 kts | 175° |
| 2026-04-16 21:39 | 34.58997 | -86.41897 | 10492 ft | 345 kts | 174° |
| 2026-04-16 21:39 | 34.56663 | -86.41483 | 10493 ft | 332 kts | 175° |
| 2026-04-16 21:39 | 34.54415 | -86.41075 | 10487 ft | 322 kts | 174° |
| 2026-04-16 21:40 | 34.52227 | -86.40677 | 10484 ft | 314 kts | 174° |
| 2026-04-16 21:40 | 34.50118 | -86.40291 | 10481 ft | 308 kts | 175° |
| 2026-04-16 21:40 | 34.47904 | -86.39888 | 10483 ft | 339 kts | 174° |
| 2026-04-16 21:40 | 34.45514 | -86.39472 | 10499 ft | 352 kts | 175° |
| 2026-04-16 21:41 | 34.43065 | -86.39040 | 10505 ft | 359 kts | 175° |
| 2026-04-16 21:41 | 34.40581 | -86.38603 | 10508 ft | 360 kts | 175° |
| 2026-04-16 21:41 | 34.38116 | -86.38153 | 10506 ft | 356 kts | 174° |
| 2026-04-16 21:41 | 34.35682 | -86.37708 | 10506 ft | 351 kts | 175° |
| 2026-04-16 21:42 | 34.33285 | -86.37266 | 10513 ft | 346 kts | 174° |
| 2026-04-16 21:42 | 34.30916 | -86.36827 | 10503 ft | 343 kts | 175° |
| 2026-04-16 21:42 | 34.28565 | -86.36390 | 10507 ft | 341 kts | 175° |
| 2026-04-16 21:42 | 34.26226 | -86.35949 | 10504 ft | 339 kts | 174° |
| 2026-04-16 21:43 | 34.23894 | -86.35511 | 10506 ft | 338 kts | 175° |
| 2026-04-16 21:43 | 34.21575 | -86.35072 | 10501 ft | 338 kts | 175° |
| 2026-04-16 21:43 | 34.19245 | -86.34632 | 10506 ft | 337 kts | 174° |
| 2026-04-16 21:43 | 34.16958 | -86.34194 | 10430 ft | 330 kts | 175° |
| 2026-04-16 21:44 | 34.14694 | -86.33761 | 10096 ft | 329 kts | 174° |
| 2026-04-16 21:44 | 34.12477 | -86.33347 | 9676 ft | 322 kts | 174° |
| 2026-04-16 21:44 | 34.10285 | -86.32943 | 9239 ft | 314 kts | 174° |
| 2026-04-16 21:44 | 34.08152 | -86.32557 | 8801 ft | 306 kts | 174° |
| 2026-04-16 21:45 | 34.06138 | -86.32194 | 8417 ft | 274 kts | 174° |
| 2026-04-16 21:45 | 34.04342 | -86.31863 | 8019 ft | 251 kts | 174° |
| 2026-04-16 21:45 | 34.02656 | -86.31575 | 7606 ft | 239 kts | 177° |
| 2026-04-16 21:45 | 34.01016 | -86.31493 | 7191 ft | 232 kts | 182° |
| 2026-04-16 21:46 | 33.99423 | -86.31547 | 6786 ft | 227 kts | 188° |
| 2026-04-16 21:46 | 33.97858 | -86.31777 | 6379 ft | 226 kts | 192° |
| 2026-04-16 21:46 | 33.96336 | -86.32233 | 5952 ft | 225 kts | 198° |
| 2026-04-16 21:46 | 33.94837 | -86.32750 | 5547 ft | 223 kts | 199° |
| 2026-04-16 21:47 | 33.93341 | -86.33285 | 5119 ft | 225 kts | 199° |
| 2026-04-16 21:47 | 33.91842 | -86.33822 | 4722 ft | 225 kts | 199° |
| 2026-04-16 21:47 | 33.90349 | -86.34360 | 4523 ft | 222 kts | 199° |
| 2026-04-16 21:47 | 33.88888 | -86.34891 | 4492 ft | 226 kts | 198° |
| 2026-04-16 21:48 | 33.87327 | -86.35459 | 4482 ft | 242 kts | 199° |
| 2026-04-16 21:48 | 33.85681 | -86.36063 | 4488 ft | 253 kts | 198° |
| 2026-04-16 21:48 | 33.83991 | -86.36695 | 4516 ft | 248 kts | 199° |
| 2026-04-16 21:48 | 33.82435 | -86.37283 | 4519 ft | 222 kts | 199° |
| 2026-04-16 21:49 | 33.81059 | -86.37975 | 4517 ft | 207 kts | 209° |
| 2026-04-16 21:49 | 33.79861 | -86.38827 | 4514 ft | 194 kts | 213° |
| 2026-04-16 21:49 | 33.78791 | -86.39729 | 4502 ft | 185 kts | 219° |
| 2026-04-16 21:49 | 33.77835 | -86.40721 | 4490 ft | 178 kts | 224° |
| 2026-04-16 21:50 | 33.76960 | -86.41756 | 4496 ft | 174 kts | 228° |
| 2026-04-16 21:50 | 33.76144 | -86.42800 | 4497 ft | 170 kts | 228° |
| 2026-04-16 21:50 | 33.75352 | -86.43845 | 4510 ft | 170 kts | 228° |
| 2026-04-16 21:50 | 33.74559 | -86.44900 | 4492 ft | 169 kts | 230° |
| 2026-04-16 21:51 | 33.73821 | -86.45968 | 4454 ft | 169 kts | 231° |
| 2026-04-16 21:51 | 33.73049 | -86.47114 | 4184 ft | 182 kts | 231° |
| 2026-04-16 21:51 | 33.72255 | -86.48337 | 3928 ft | 188 kts | 232° |
| 2026-04-16 21:51 | 33.71485 | -86.49619 | 3676 ft | 191 kts | 234° |
| 2026-04-16 21:52 | 33.70714 | -86.50897 | 3563 ft | 185 kts | 233° |
| 2026-04-16 21:52 | 33.69977 | -86.52132 | 3542 ft | 178 kts | 233° |
| 2026-04-16 21:52 | 33.69266 | -86.53364 | 3494 ft | 177 kts | 236° |
| 2026-04-16 21:52 | 33.68568 | -86.54576 | 3494 ft | 175 kts | 234° |
| 2026-04-16 21:53 | 33.67898 | -86.55753 | 3520 ft | 168 kts | 236° |
| 2026-04-16 21:53 | 33.67233 | -86.56879 | 3516 ft | 166 kts | 234° |
| 2026-04-16 21:53 | 33.66572 | -86.58003 | 3517 ft | 165 kts | 234° |
| 2026-04-16 21:53 | 33.65909 | -86.59130 | 3510 ft | 159 kts | 236° |
| 2026-04-16 21:54 | 33.65275 | -86.60195 | 3498 ft | 153 kts | 232° |
| 2026-04-16 21:54 | 33.64686 | -86.61211 | 3505 ft | 146 kts | 238° |
| 2026-04-16 21:54 | 33.64115 | -86.62210 | 3509 ft | 144 kts | 234° |
| 2026-04-16 21:54 | 33.63530 | -86.63179 | 3432 ft | 145 kts | 233° |
| 2026-04-16 21:55 | 33.62934 | -86.64186 | 3253 ft | 152 kts | 235° |
| 2026-04-16 21:55 | 33.62322 | -86.65244 | 3180 ft | 152 kts | 234° |
| 2026-04-16 21:55 | 33.61719 | -86.66278 | 3126 ft | 147 kts | 234° |
| 2026-04-16 21:55 | 33.61109 | -86.67341 | 2675 ft | 161 kts | 234° |
| 2026-04-16 21:56 | 33.60501 | -86.68468 | 2415 ft | 158 kts | 235° |
| 2026-04-16 21:56 | 33.59878 | -86.69525 | 2221 ft | 155 kts | 234° |
| 2026-04-16 21:56 | 33.59283 | -86.70552 | 2004 ft | 135 kts | 233° |
| 2026-04-16 21:56 | 33.58778 | -86.71461 | 1503 ft | 133 kts | 235° |
| 2026-04-16 21:57 | 33.58245 | -86.72362 | 1143 ft | 133 kts | 233° |
| 2026-04-16 21:57 | 33.57716 | -86.73271 | 852 ft | 131 kts | 235° |
| 2026-04-16 21:57 | 33.57222 | -86.74140 | 681 ft | 119 kts | 234° |
| 2026-04-16 21:57 | 33.56810 | -86.74838 | 643 ft | 74 kts | 237° |
| 2026-04-16 21:58 | 33.56652 | -86.75025 | 639 ft | 7 kts | 144° |
| 2026-04-16 21:58 | 33.56647 | -86.75021 | 639 ft | 0 kts | 139° |
| 2026-04-16 21:58 | 33.56647 | -86.75020 | 639 ft | 2 kts | 139° |
| 2026-04-16 21:58 | 33.56534 | -86.74880 | 637 ft | 25 kts | 134° |
| 2026-04-16 21:59 | 33.56441 | -86.74770 | 636 ft | 21 kts | 134° |
| 2026-04-16 21:59 | 33.56421 | -86.74612 | 638 ft | 19 kts | 81° |
| 2026-04-16 21:59 | 33.56439 | -86.74449 | 636 ft | 20 kts | 84° |
| 2026-04-16 21:59 | 33.56518 | -86.74339 | 635 ft | 19 kts | 22° |
| 2026-04-16 22:00 | 33.56555 | -86.74408 | 635 ft | 1 kts | 268° |